sensor_id;sensor_type;location;lat;lon;timestamp;pressure;altitude;pressure_sealevel;temperature;humidity
4469;BME280;2247;42.666;23.292;2024-02-04T00:00:40;94771.56;;;11.67;48.67
4469;BME280;2247;42.666;23.292;2024-02-04T00:03:08;94759.94;;;11.63;49.02
4469;BME280;2247;42.666;23.292;2024-02-04T00:05:35;94757.59;;;11.47;49.55
4469;BME280;2247;42.666;23.292;2024-02-04T00:08:02;94770.78;;;11.57;49.30
4469;BME280;2247;42.666;23.292;2024-02-04T00:10:30;94753.13;;;11.42;49.47
4469;BME280;2247;42.666;23.292;2024-02-04T00:12:57;94773.66;;;11.55;49.32
4469;BME280;2247;42.666;23.292;2024-02-04T00:15:24;94773.69;;;11.60;49.86
4469;BME280;2247;42.666;23.292;2024-02-04T00:17:52;94773.41;;;11.62;49.48
4469;BME280;2247;42.666;23.292;2024-02-04T00:20:19;94765.50;;;11.57;49.97
4469;BME280;2247;42.666;23.292;2024-02-04T00:22:46;94770.50;;;11.58;50.26
4469;BME280;2247;42.666;23.292;2024-02-04T00:25:13;94762.84;;;11.62;50.09
4469;BME280;2247;42.666;23.292;2024-02-04T00:27:40;94767.56;;;11.70;49.51
4469;BME280;2247;42.666;23.292;2024-02-04T00:30:08;94770.47;;;11.73;49.28
4469;BME280;2247;42.666;23.292;2024-02-04T00:32:35;94756.75;;;11.76;49.34
4469;BME280;2247;42.666;23.292;2024-02-04T00:35:05;94745.44;;;11.61;49.25
4469;BME280;2247;42.666;23.292;2024-02-04T00:37:32;94740.13;;;11.71;48.86
4469;BME280;2247;42.666;23.292;2024-02-04T00:39:59;94757.56;;;11.77;49.34
4469;BME280;2247;42.666;23.292;2024-02-04T00:42:26;94754.38;;;11.70;49.66
4469;BME280;2247;42.666;23.292;2024-02-04T00:44:53;94753.31;;;11.76;49.37
4469;BME280;2247;42.666;23.292;2024-02-04T00:47:20;94747.53;;;11.79;49.40
4469;BME280;2247;42.666;23.292;2024-02-04T00:49:47;94755.16;;;11.86;49.29
4469;BME280;2247;42.666;23.292;2024-02-04T00:52:15;94747.78;;;11.77;49.99
4469;BME280;2247;42.666;23.292;2024-02-04T00:54:41;94746.22;;;11.81;50.02
4469;BME280;2247;42.666;23.292;2024-02-04T00:57:08;94752.25;;;11.87;49.79
4469;BME280;2247;42.666;23.292;2024-02-04T00:59:36;94742.75;;;11.86;50.25
4469;BME280;2247;42.666;23.292;2024-02-04T01:02:03;94745.63;;;11.90;50.04
4469;BME280;2247;42.666;23.292;2024-02-04T01:04:30;94751.97;;;11.94;50.16
4469;BME280;2247;42.666;23.292;2024-02-04T01:06:57;94743.78;;;11.95;50.07
4469;BME280;2247;42.666;23.292;2024-02-04T01:09:25;94748.28;;;11.95;49.68
4469;BME280;2247;42.666;23.292;2024-02-04T01:11:52;94746.91;;;11.97;50.06
4469;BME280;2247;42.666;23.292;2024-02-04T01:14:19;94736.94;;;11.89;50.46
4469;BME280;2247;42.666;23.292;2024-02-04T01:16:47;94750.97;;;11.79;51.08
4469;BME280;2247;42.666;23.292;2024-02-04T01:19:14;94756.22;;;11.84;51.00
4469;BME280;2247;42.666;23.292;2024-02-04T01:21:41;94732.47;;;11.79;50.81
4469;BME280;2247;42.666;23.292;2024-02-04T01:24:09;94746.44;;;11.85;50.77
4469;BME280;2247;42.666;23.292;2024-02-04T01:26:38;94739.56;;;11.84;51.28
4469;BME280;2247;42.666;23.292;2024-02-04T01:29:05;94742.75;;;11.86;51.06
4469;BME280;2247;42.666;23.292;2024-02-04T01:31:32;94731.41;;;11.86;51.19
4469;BME280;2247;42.666;23.292;2024-02-04T01:33:59;94734.84;;;11.81;51.32
4469;BME280;2247;42.666;23.292;2024-02-04T01:36:26;94735.66;;;11.81;51.88
4469;BME280;2247;42.666;23.292;2024-02-04T01:38:53;94726.13;;;11.86;51.51
4469;BME280;2247;42.666;23.292;2024-02-04T01:41:20;94717.38;;;11.90;51.36
4469;BME280;2247;42.666;23.292;2024-02-04T01:43:48;94726.34;;;11.94;51.61
4469;BME280;2247;42.666;23.292;2024-02-04T01:46:15;94730.03;;;11.98;51.31
4469;BME280;2247;42.666;23.292;2024-02-04T01:48:43;94711.56;;;11.93;51.45
4469;BME280;2247;42.666;23.292;2024-02-04T01:51:10;94709.75;;;11.89;51.38
4469;BME280;2247;42.666;23.292;2024-02-04T01:53:38;94720.00;;;11.95;51.48
4469;BME280;2247;42.666;23.292;2024-02-04T01:56:08;94717.41;;;11.85;51.52
4469;BME280;2247;42.666;23.292;2024-02-04T01:58:37;94730.06;;;11.83;51.55
4469;BME280;2247;42.666;23.292;2024-02-04T02:01:05;94716.31;;;11.91;51.99
4469;BME280;2247;42.666;23.292;2024-02-04T02:03:32;94726.88;;;11.91;52.48
4469;BME280;2247;42.666;23.292;2024-02-04T02:05:59;94705.00;;;11.70;52.27
4469;BME280;2247;42.666;23.292;2024-02-04T02:08:27;94726.13;;;11.86;52.33
4469;BME280;2247;42.666;23.292;2024-02-04T02:11:07;94703.97;;;11.76;52.55
4469;BME280;2247;42.666;23.292;2024-02-04T02:13:39;94715.31;;;11.82;52.40
4469;BME280;2247;42.666;23.292;2024-02-04T02:16:13;94717.69;;;11.73;52.71
4469;BME280;2247;42.666;23.292;2024-02-04T02:18:47;94719.81;;;11.81;52.48
4469;BME280;2247;42.666;23.292;2024-02-04T02:21:30;94717.38;;;11.90;52.20
4469;BME280;2247;42.666;23.292;2024-02-04T02:24:10;94713.13;;;11.99;52.24
4469;BME280;2247;42.666;23.292;2024-02-04T02:26:40;94715.22;;;12.02;51.97
4469;BME280;2247;42.666;23.292;2024-02-04T02:29:07;94706.53;;;11.92;52.06
4469;BME280;2247;42.666;23.292;2024-02-04T02:31:35;94710.78;;;11.93;52.22
4469;BME280;2247;42.666;23.292;2024-02-04T02:34:02;94715.78;;;11.94;51.95
4469;BME280;2247;42.666;23.292;2024-02-04T02:36:42;94707.06;;;11.94;51.74
4469;BME280;2247;42.666;23.292;2024-02-04T02:39:15;94707.91;;;11.89;52.11
4469;BME280;2247;42.666;23.292;2024-02-04T02:41:48;94702.59;;;11.94;51.93
4469;BME280;2247;42.666;23.292;2024-02-04T02:44:17;94693.41;;;11.81;52.02
4469;BME280;2247;42.666;23.292;2024-02-04T02:46:45;94705.75;;;11.91;52.30
4469;BME280;2247;42.666;23.292;2024-02-04T02:49:13;94695.72;;;11.93;51.90
4469;BME280;2247;42.666;23.292;2024-02-04T02:51:40;94692.56;;;11.96;51.95
4469;BME280;2247;42.666;23.292;2024-02-04T02:54:07;94689.91;;;11.96;51.92
4469;BME280;2247;42.666;23.292;2024-02-04T02:56:34;94693.59;;;11.90;52.31
4469;BME280;2247;42.666;23.292;2024-02-04T02:59:03;94682.06;;;11.81;52.15
4469;BME280;2247;42.666;23.292;2024-02-04T03:01:30;94699.19;;;11.83;52.02
4469;BME280;2247;42.666;23.292;2024-02-04T03:03:57;94685.44;;;11.87;52.03
4469;BME280;2247;42.666;23.292;2024-02-04T03:06:24;94692.06;;;11.89;51.94
4469;BME280;2247;42.666;23.292;2024-02-04T03:08:52;94674.34;;;11.95;52.18
4469;BME280;2247;42.666;23.292;2024-02-04T03:11:19;94679.63;;;11.95;52.18
4469;BME280;2247;42.666;23.292;2024-02-04T03:13:46;94677.72;;;12.00;52.03
4469;BME280;2247;42.666;23.292;2024-02-04T03:16:15;94662.44;;;11.92;51.68
4469;BME280;2247;42.666;23.292;2024-02-04T03:18:43;94657.34;;;12.06;52.02
4469;BME280;2247;42.666;23.292;2024-02-04T03:21:13;94651.31;;;12.00;52.00
4469;BME280;2247;42.666;23.292;2024-02-04T03:23:41;94667.97;;;12.01;52.24
4469;BME280;2247;42.666;23.292;2024-02-04T03:26:08;94666.03;;;12.11;52.35
4469;BME280;2247;42.666;23.292;2024-02-04T03:28:35;94653.34;;;12.13;51.97
4469;BME280;2247;42.666;23.292;2024-02-04T03:31:02;94676.59;;;12.11;52.29
4469;BME280;2247;42.666;23.292;2024-02-04T03:33:31;94675.81;;;12.11;51.92
4469;BME280;2247;42.666;23.292;2024-02-04T03:35:58;94668.19;;;12.09;51.93
4469;BME280;2247;42.666;23.292;2024-02-04T03:38:24;94668.75;;;12.01;52.27
4469;BME280;2247;42.666;23.292;2024-02-04T03:40:52;94666.88;;;12.07;52.09
4469;BME280;2247;42.666;23.292;2024-02-04T03:43:19;94643.00;;;12.17;51.72
4469;BME280;2247;42.666;23.292;2024-02-04T03:45:46;94634.81;;;12.18;52.00
4469;BME280;2247;42.666;23.292;2024-02-04T03:48:13;94630.38;;;12.14;51.67
4469;BME280;2247;42.666;23.292;2024-02-04T03:50:43;94645.97;;;12.15;52.23
4469;BME280;2247;42.666;23.292;2024-02-04T03:53:10;94638.78;;;12.21;51.73
4469;BME280;2247;42.666;23.292;2024-02-04T03:55:37;94642.53;;;12.15;52.69
4469;BME280;2247;42.666;23.292;2024-02-04T03:58:04;94633.25;;;12.17;52.79
4469;BME280;2247;42.666;23.292;2024-02-04T04:00:31;94655.47;;;12.11;53.20
4469;BME280;2247;42.666;23.292;2024-02-04T04:02:58;94668.19;;;12.09;52.53
4469;BME280;2247;42.666;23.292;2024-02-04T04:05:25;94677.69;;;12.05;52.54
4469;BME280;2247;42.666;23.292;2024-02-04T04:07:54;94642.97;;;11.78;53.91
4469;BME280;2247;42.666;23.292;2024-02-04T04:10:21;94668.81;;;11.86;54.05
4469;BME280;2247;42.666;23.292;2024-02-04T04:12:48;94670.94;;;11.84;53.93
4469;BME280;2247;42.666;23.292;2024-02-04T04:15:15;94659.88;;;11.77;53.96
4469;BME280;2247;42.666;23.292;2024-02-04T04:17:42;94656.06;;;11.98;53.49
4469;BME280;2247;42.666;23.292;2024-02-04T04:20:10;94618.38;;;11.88;53.62
4469;BME280;2247;42.666;23.292;2024-02-04T04:22:39;94641.81;;;11.99;53.17
4469;BME280;2247;42.666;23.292;2024-02-04T04:25:09;94605.47;;;11.81;53.77
4469;BME280;2247;42.666;23.292;2024-02-04T04:27:36;94647.09;;;11.99;53.80
4469;BME280;2247;42.666;23.292;2024-02-04T04:30:04;94653.97;;;12.00;53.80
4469;BME280;2247;42.666;23.292;2024-02-04T04:32:31;94652.97;;;11.86;54.02
4469;BME280;2247;42.666;23.292;2024-02-04T04:34:58;94671.91;;;11.98;54.28
4469;BME280;2247;42.666;23.292;2024-02-04T04:37:25;94669.25;;;12.03;54.03
4469;BME280;2247;42.666;23.292;2024-02-04T04:39:52;94663.69;;;12.05;54.20
4469;BME280;2247;42.666;23.292;2024-02-04T04:42:21;94645.78;;;12.02;53.67
4469;BME280;2247;42.666;23.292;2024-02-04T04:44:48;94649.09;;;12.17;53.79
4469;BME280;2247;42.666;23.292;2024-02-04T04:47:15;94637.81;;;12.07;54.50
4469;BME280;2247;42.666;23.292;2024-02-04T04:49:42;94655.47;;;12.16;54.45
4469;BME280;2247;42.666;23.292;2024-02-04T04:52:09;94662.28;;;12.22;54.62
4469;BME280;2247;42.666;23.292;2024-02-04T04:54:36;94663.84;;;12.29;53.82
4469;BME280;2247;42.666;23.292;2024-02-04T04:57:04;94667.50;;;12.33;53.42
4469;BME280;2247;42.666;23.292;2024-02-04T04:59:32;94664.06;;;12.37;53.43
4469;BME280;2247;42.666;23.292;2024-02-04T05:02:01;94665.09;;;12.36;53.22
4469;BME280;2247;42.666;23.292;2024-02-04T05:04:29;94661.72;;;12.31;53.39
4469;BME280;2247;42.666;23.292;2024-02-04T05:07:02;94645.88;;;12.31;53.11
4469;BME280;2247;42.666;23.292;2024-02-04T05:09:29;94650.03;;;12.37;53.11
4469;BME280;2247;42.666;23.292;2024-02-04T05:11:56;94651.31;;;12.39;52.88
4469;BME280;2247;42.666;23.292;2024-02-04T05:14:23;94645.72;;;12.46;52.21
4469;BME280;2247;42.666;23.292;2024-02-04T05:16:51;94651.81;;;12.46;52.27
4469;BME280;2247;42.666;23.292;2024-02-04T05:19:18;94653.41;;;12.47;52.46
4469;BME280;2247;42.666;23.292;2024-02-04T05:21:45;94648.63;;;12.49;52.48
4469;BME280;2247;42.666;23.292;2024-02-04T05:24:12;94662.97;;;12.38;52.40
4469;BME280;2247;42.666;23.292;2024-02-04T05:26:39;94666.69;;;12.37;52.65
4469;BME280;2247;42.666;23.292;2024-02-04T05:29:06;94671.69;;;12.39;52.75
4469;BME280;2247;42.666;23.292;2024-02-04T05:31:33;94662.44;;;12.41;52.12
4469;BME280;2247;42.666;23.292;2024-02-04T05:34:05;94655.59;;;12.35;52.41
4469;BME280;2247;42.666;23.292;2024-02-04T05:36:32;94664.06;;;12.37;52.15
4469;BME280;2247;42.666;23.292;2024-02-04T05:39:08;94667.47;;;12.38;53.72
4469;BME280;2247;42.666;23.292;2024-02-04T05:41:36;94655.72;;;12.54;56.27
4469;BME280;2247;42.666;23.292;2024-02-04T05:44:03;94649.78;;;12.72;56.41
4469;BME280;2247;42.666;23.292;2024-02-04T05:46:29;94658.34;;;12.88;51.58
4469;BME280;2247;42.666;23.292;2024-02-04T05:48:56;94670.25;;;12.90;50.41
4469;BME280;2247;42.666;23.292;2024-02-04T05:51:25;94671.31;;;12.89;50.56
4469;BME280;2247;42.666;23.292;2024-02-04T05:53:52;94669.25;;;12.81;50.16
4469;BME280;2247;42.666;23.292;2024-02-04T05:56:18;94669.31;;;12.76;50.71
4469;BME280;2247;42.666;23.292;2024-02-04T05:58:46;94649.31;;;12.65;50.37
4469;BME280;2247;42.666;23.292;2024-02-04T06:01:13;94678.25;;;12.80;50.44
4469;BME280;2247;42.666;23.292;2024-02-04T06:03:41;94672.50;;;12.73;50.80
4469;BME280;2247;42.666;23.292;2024-02-04T06:06:08;94692.16;;;12.62;50.59
4469;BME280;2247;42.666;23.292;2024-02-04T06:08:37;94686.84;;;12.62;50.60
4469;BME280;2247;42.666;23.292;2024-02-04T06:11:04;94685.06;;;12.52;50.88
4469;BME280;2247;42.666;23.292;2024-02-04T06:13:31;94689.56;;;12.52;50.90
4469;BME280;2247;42.666;23.292;2024-02-04T06:15:58;94689.56;;;12.52;51.39
4469;BME280;2247;42.666;23.292;2024-02-04T06:18:24;94703.56;;;12.52;51.45
4469;BME280;2247;42.666;23.292;2024-02-04T06:20:51;94701.97;;;12.56;51.56
4469;BME280;2247;42.666;23.292;2024-02-04T06:23:18;94708.53;;;12.59;50.90
4469;BME280;2247;42.666;23.292;2024-02-04T06:25:47;94701.66;;;12.63;51.20
4469;BME280;2247;42.666;23.292;2024-02-04T06:28:14;94707.00;;;12.58;51.17
4469;BME280;2247;42.666;23.292;2024-02-04T06:30:41;94704.66;;;12.51;51.29
4469;BME280;2247;42.666;23.292;2024-02-04T06:33:08;94727.88;;;12.54;51.44
4469;BME280;2247;42.666;23.292;2024-02-04T06:35:35;94720.97;;;12.58;51.54
4469;BME280;2247;42.666;23.292;2024-02-04T06:38:02;94722.84;;;12.58;51.13
4469;BME280;2247;42.666;23.292;2024-02-04T06:40:29;94747.47;;;12.48;51.40
4469;BME280;2247;42.666;23.292;2024-02-04T06:42:57;94726.59;;;12.47;51.43
4469;BME280;2247;42.666;23.292;2024-02-04T06:45:24;94720.31;;;12.43;51.86
4469;BME280;2247;42.666;23.292;2024-02-04T06:47:51;94711.44;;;12.23;51.77
4469;BME280;2247;42.666;23.292;2024-02-04T06:50:18;94733.50;;;12.43;51.71
4469;BME280;2247;42.666;23.292;2024-02-04T06:52:46;94722.94;;;12.38;51.76
4469;BME280;2247;42.666;23.292;2024-02-04T06:55:13;94716.81;;;12.47;51.69
4469;BME280;2247;42.666;23.292;2024-02-04T06:57:40;94737.13;;;12.52;51.49
4469;BME280;2247;42.666;23.292;2024-02-04T07:00:09;94743.47;;;12.56;51.95
4469;BME280;2247;42.666;23.292;2024-02-04T07:02:37;94742.13;;;12.58;51.55
4469;BME280;2247;42.666;23.292;2024-02-04T07:05:04;94732.31;;;12.64;50.99
4469;BME280;2247;42.666;23.292;2024-02-04T07:07:31;94733.88;;;12.70;50.73
4469;BME280;2247;42.666;23.292;2024-02-04T07:09:59;94729.69;;;12.59;50.94
4469;BME280;2247;42.666;23.292;2024-02-04T07:12:26;94755.56;;;12.72;51.11
4469;BME280;2247;42.666;23.292;2024-02-04T07:14:53;94730.19;;;12.66;50.81
4469;BME280;2247;42.666;23.292;2024-02-04T07:17:21;94730.19;;;12.66;51.07
4469;BME280;2247;42.666;23.292;2024-02-04T07:19:48;94726.06;;;12.50;51.31
4469;BME280;2247;42.666;23.292;2024-02-04T07:22:15;94739.25;;;12.55;51.64
4469;BME280;2247;42.666;23.292;2024-02-04T07:24:42;94738.97;;;12.56;51.33
4469;BME280;2247;42.666;23.292;2024-02-04T07:27:09;94725.41;;;12.68;51.50
4469;BME280;2247;42.666;23.292;2024-02-04T07:29:36;94716.38;;;12.74;51.24
4469;BME280;2247;42.666;23.292;2024-02-04T07:32:03;94732.94;;;12.90;50.52
4469;BME280;2247;42.666;23.292;2024-02-04T07:34:31;94724.16;;;12.94;49.90
4469;BME280;2247;42.666;23.292;2024-02-04T07:36:58;94719.97;;;12.88;50.34
4469;BME280;2247;42.666;23.292;2024-02-04T07:39:25;94726.31;;;12.92;49.81
4469;BME280;2247;42.666;23.292;2024-02-04T07:41:52;94727.09;;;12.93;50.12
4469;BME280;2247;42.666;23.292;2024-02-04T07:44:21;94713.94;;;12.83;49.70
4469;BME280;2247;42.666;23.292;2024-02-04T07:46:49;94724.25;;;12.84;49.97
4469;BME280;2247;42.666;23.292;2024-02-04T07:49:16;94733.28;;;12.78;50.12
4469;BME280;2247;42.666;23.292;2024-02-04T07:51:45;94726.91;;;12.84;50.11
4469;BME280;2247;42.666;23.292;2024-02-04T07:54:12;94734.84;;;12.79;49.75
4469;BME280;2247;42.666;23.292;2024-02-04T07:56:38;94721.09;;;12.82;49.82
4469;BME280;2247;42.666;23.292;2024-02-04T07:59:05;94700.66;;;12.88;49.67
4469;BME280;2247;42.666;23.292;2024-02-04T08:01:32;94721.88;;;12.83;49.58
4469;BME280;2247;42.666;23.292;2024-02-04T08:03:59;94728.38;;;12.95;48.83
4469;BME280;2247;42.666;23.292;2024-02-04T08:06:27;94725.69;;;13.00;49.16
4469;BME280;2247;42.666;23.292;2024-02-04T08:08:56;94701.19;;;12.90;48.84
4469;BME280;2247;42.666;23.292;2024-02-04T08:11:23;94734.66;;;13.05;48.65
4469;BME280;2247;42.666;23.292;2024-02-04T08:13:50;94697.06;;;13.13;48.92
4469;BME280;2247;42.666;23.292;2024-02-04T08:16:17;94723.88;;;13.30;47.90
4469;BME280;2247;42.666;23.292;2024-02-04T08:18:43;94732.53;;;13.40;47.73
4469;BME280;2247;42.666;23.292;2024-02-04T08:21:11;94715.25;;;13.48;48.01
4469;BME280;2247;42.666;23.292;2024-02-04T08:23:38;94722.34;;;13.53;47.56
4469;BME280;2247;42.666;23.292;2024-02-04T08:26:07;94721.63;;;13.71;47.00
4469;BME280;2247;42.666;23.292;2024-02-04T08:28:34;94711.94;;;13.85;46.30
4469;BME280;2247;42.666;23.292;2024-02-04T08:31:01;94715.25;;;13.96;46.40
4469;BME280;2247;42.666;23.292;2024-02-04T08:33:28;94707.25;;;14.01;45.65
4469;BME280;2247;42.666;23.292;2024-02-04T08:35:55;94677.84;;;13.78;45.41
4469;BME280;2247;42.666;23.292;2024-02-04T08:38:22;94708.03;;;14.01;45.26
4469;BME280;2247;42.666;23.292;2024-02-04T08:40:49;94674.78;;;13.90;45.78
4469;BME280;2247;42.666;23.292;2024-02-04T08:43:18;94700.50;;;13.90;45.04
4469;BME280;2247;42.666;23.292;2024-02-04T08:45:45;94702.84;;;13.91;45.61
4469;BME280;2247;42.666;23.292;2024-02-04T08:48:12;94706.69;;;13.80;45.78
4469;BME280;2247;42.666;23.292;2024-02-04T08:50:39;94683.47;;;13.72;45.64
4469;BME280;2247;42.666;23.292;2024-02-04T08:53:06;94706.91;;;13.84;45.99
4469;BME280;2247;42.666;23.292;2024-02-04T08:55:33;94690.81;;;13.80;45.45
4469;BME280;2247;42.666;23.292;2024-02-04T08:58:00;94713.56;;;13.81;45.73
4469;BME280;2247;42.666;23.292;2024-02-04T09:00:28;94733.97;;;13.80;46.20
4469;BME280;2247;42.666;23.292;2024-02-04T09:02:55;94732.00;;;13.67;46.20
4469;BME280;2247;42.666;23.292;2024-02-04T09:05:22;94735.81;;;13.56;47.14
4469;BME280;2247;42.666;23.292;2024-02-04T09:07:49;94743.41;;;13.63;46.76
4469;BME280;2247;42.666;23.292;2024-02-04T09:10:16;94746.06;;;13.63;46.94
4469;BME280;2247;42.666;23.292;2024-02-04T09:12:43;94749.91;;;13.52;46.59
4469;BME280;2247;42.666;23.292;2024-02-04T09:15:10;94746.66;;;13.60;47.08
4469;BME280;2247;42.666;23.292;2024-02-04T09:17:39;94755.09;;;13.62;47.30
4469;BME280;2247;42.666;23.292;2024-02-04T09:20:07;94754.91;;;13.53;47.04
4469;BME280;2247;42.666;23.292;2024-02-04T09:22:34;94753.00;;;13.59;46.72
4469;BME280;2247;42.666;23.292;2024-02-04T09:25:01;94762.19;;;13.66;47.08
4469;BME280;2247;42.666;23.292;2024-02-04T09:27:28;94760.41;;;13.62;47.32
4469;BME280;2247;42.666;23.292;2024-02-04T09:29:55;94779.28;;;13.50;47.83
4469;BME280;2247;42.666;23.292;2024-02-04T09:32:24;94777.38;;;13.56;47.59
4469;BME280;2247;42.666;23.292;2024-02-04T09:34:52;94794.31;;;13.60;47.98
4469;BME280;2247;42.666;23.292;2024-02-04T09:37:19;94774.72;;;13.56;47.64
4469;BME280;2247;42.666;23.292;2024-02-04T09:39:46;94778.16;;;13.61;48.15
4469;BME280;2247;42.666;23.292;2024-02-04T09:42:20;94779.47;;;13.59;47.98
4469;BME280;2247;42.666;23.292;2024-02-04T09:44:50;94772.72;;;13.71;47.85
4469;BME280;2247;42.666;23.292;2024-02-04T09:47:17;94770.53;;;13.78;47.49
4469;BME280;2247;42.666;23.292;2024-02-04T09:49:44;94768.63;;;13.84;47.65
4469;BME280;2247;42.666;23.292;2024-02-04T09:52:13;94769.81;;;13.73;47.74
4469;BME280;2247;42.666;23.292;2024-02-04T09:54:45;94761.00;;;13.77;48.00
4469;BME280;2247;42.666;23.292;2024-02-04T09:57:14;94762.06;;;13.76;47.89
4469;BME280;2247;42.666;23.292;2024-02-04T09:59:44;94754.13;;;13.76;47.97
4469;BME280;2247;42.666;23.292;2024-02-04T10:02:13;94750.22;;;13.74;48.17
4469;BME280;2247;42.666;23.292;2024-02-04T10:04:40;94747.84;;;13.72;48.16
4469;BME280;2247;42.666;23.292;2024-02-04T10:07:07;94749.41;;;13.73;48.36
4469;BME280;2247;42.666;23.292;2024-02-04T10:09:35;94774.03;;;13.74;48.33
4469;BME280;2247;42.666;23.292;2024-02-04T10:12:02;94774.78;;;13.79;48.21
4469;BME280;2247;42.666;23.292;2024-02-04T10:14:30;94772.66;;;13.82;48.56
4469;BME280;2247;42.666;23.292;2024-02-04T10:16:57;94762.38;;;13.75;49.16
4469;BME280;2247;42.666;23.292;2024-02-04T10:19:24;94775.75;;;13.89;49.62
4469;BME280;2247;42.666;23.292;2024-02-04T10:21:58;94742.06;;;13.65;49.78
4469;BME280;2247;42.666;23.292;2024-02-04T10:24:26;94769.94;;;13.87;49.41
4469;BME280;2247;42.666;23.292;2024-02-04T10:26:54;94778.84;;;13.96;49.55
4469;BME280;2247;42.666;23.292;2024-02-04T10:29:21;94775.16;;;13.92;49.58
4469;BME280;2247;42.666;23.292;2024-02-04T10:31:53;94736.44;;;13.72;49.90
4469;BME280;2247;42.666;23.292;2024-02-04T10:34:20;94768.81;;;13.93;49.66
4469;BME280;2247;42.666;23.292;2024-02-04T10:36:47;94744.78;;;13.84;49.69
4469;BME280;2247;42.666;23.292;2024-02-04T10:39:14;94748.59;;;13.97;50.19
4469;BME280;2247;42.666;23.292;2024-02-04T10:41:48;94751.31;;;13.92;50.01
4469;BME280;2247;42.666;23.292;2024-02-04T10:44:18;94743.97;;;13.89;50.10
4469;BME280;2247;42.666;23.292;2024-02-04T10:46:47;94762.50;;;13.89;50.35
4469;BME280;2247;42.666;23.292;2024-02-04T10:49:16;94743.31;;;13.73;50.02
4469;BME280;2247;42.666;23.292;2024-02-04T10:51:44;94748.84;;;13.76;50.18
4469;BME280;2247;42.666;23.292;2024-02-04T10:54:14;94757.22;;;13.84;50.38
4469;BME280;2247;42.666;23.292;2024-02-04T10:56:44;94765.50;;;13.82;50.11
4469;BME280;2247;42.666;23.292;2024-02-04T10:59:11;94760.47;;;13.80;49.93
4469;BME280;2247;42.666;23.292;2024-02-04T11:01:40;94764.13;;;13.85;50.27
4469;BME280;2247;42.666;23.292;2024-02-04T11:04:08;94753.50;;;13.90;49.82
4469;BME280;2247;42.666;23.292;2024-02-04T11:06:40;94754.50;;;13.94;49.84
4469;BME280;2247;42.666;23.292;2024-02-04T11:09:09;94759.78;;;13.94;49.56
4469;BME280;2247;42.666;23.292;2024-02-04T11:11:37;94757.34;;;13.97;49.86
4469;BME280;2247;42.666;23.292;2024-02-04T11:14:09;94751.88;;;14.12;49.40
4469;BME280;2247;42.666;23.292;2024-02-04T11:16:55;94758.69;;;14.18;49.38
4469;BME280;2247;42.666;23.292;2024-02-04T11:19:35;94737.50;;;14.18;49.13
4469;BME280;2247;42.666;23.292;2024-02-04T11:25:07;94717.69;;;14.11;48.94
4469;BME280;2247;42.666;23.292;2024-02-04T11:27:39;94729.44;;;14.05;49.05
4469;BME280;2247;42.666;23.292;2024-02-04T11:30:07;94718.63;;;14.01;49.48
4469;BME280;2247;42.666;23.292;2024-02-04T11:32:36;94714.16;;;13.97;49.54
4469;BME280;2247;42.666;23.292;2024-02-04T11:35:04;94720.66;;;14.09;49.01
4469;BME280;2247;42.666;23.292;2024-02-04T11:37:33;94695.41;;;13.93;49.42
4469;BME280;2247;42.666;23.292;2024-02-04T11:40:04;94695.31;;;14.03;49.11
4469;BME280;2247;42.666;23.292;2024-02-04T11:42:31;94722.88;;;14.21;49.04
4469;BME280;2247;42.666;23.292;2024-02-04T11:45:08;94722.03;;;14.26;49.08
4469;BME280;2247;42.666;23.292;2024-02-04T11:47:37;94723.25;;;14.33;48.81
4469;BME280;2247;42.666;23.292;2024-02-04T11:50:05;94724.28;;;14.37;48.42
4469;BME280;2247;42.666;23.292;2024-02-04T11:52:32;94701.75;;;14.35;48.28
4469;BME280;2247;42.666;23.292;2024-02-04T11:55:00;94694.38;;;14.32;48.46
4469;BME280;2247;42.666;23.292;2024-02-04T11:57:27;94689.38;;;14.30;48.51
4469;BME280;2247;42.666;23.292;2024-02-04T11:59:54;94681.34;;;14.35;48.86
4469;BME280;2247;42.666;23.292;2024-02-04T12:02:21;94648.03;;;14.10;48.67
4469;BME280;2247;42.666;23.292;2024-02-04T12:04:49;94669.97;;;14.16;49.10
4469;BME280;2247;42.666;23.292;2024-02-04T12:07:17;94659.84;;;14.18;48.43
4469;BME280;2247;42.666;23.292;2024-02-04T12:09:45;94663.63;;;14.12;48.50
4469;BME280;2247;42.666;23.292;2024-02-04T12:12:12;94674.75;;;14.14;48.65
4469;BME280;2247;42.666;23.292;2024-02-04T12:14:39;94666.06;;;14.08;48.96
4469;BME280;2247;42.666;23.292;2024-02-04T12:17:08;94622.72;;;13.99;48.62
4469;BME280;2247;42.666;23.292;2024-02-04T12:19:35;94671.47;;;14.22;48.22
4469;BME280;2247;42.666;23.292;2024-02-04T12:22:05;94634.28;;;14.08;48.51
4469;BME280;2247;42.666;23.292;2024-02-04T12:24:35;94660.66;;;14.37;48.40
4469;BME280;2247;42.666;23.292;2024-02-04T12:27:03;94666.41;;;14.44;48.22
4469;BME280;2247;42.666;23.292;2024-02-04T12:29:30;94657.03;;;14.52;47.52
4469;BME280;2247;42.666;23.292;2024-02-04T12:32:00;94661.97;;;14.58;47.52
4469;BME280;2247;42.666;23.292;2024-02-04T12:34:28;94652.69;;;14.56;47.70
4469;BME280;2247;42.666;23.292;2024-02-04T12:36:58;94599.81;;;14.27;47.56
4469;BME280;2247;42.666;23.292;2024-02-04T12:39:27;94660.50;;;14.66;47.15
4469;BME280;2247;42.666;23.292;2024-02-04T12:41:54;94640.22;;;14.56;46.50
4469;BME280;2247;42.666;23.292;2024-02-04T12:44:21;94662.38;;;14.66;47.06
4469;BME280;2247;42.666;23.292;2024-02-04T12:46:51;94651.09;;;14.74;46.15
4469;BME280;2247;42.666;23.292;2024-02-04T12:49:19;94659.63;;;14.71;46.46
4469;BME280;2247;42.666;23.292;2024-02-04T12:51:47;94655.91;;;14.72;46.45
4469;BME280;2247;42.666;23.292;2024-02-04T12:54:14;94657.31;;;14.83;46.46
4469;BME280;2247;42.666;23.292;2024-02-04T12:56:46;94651.34;;;14.91;45.93
4469;BME280;2247;42.666;23.292;2024-02-04T12:59:23;94658.66;;;14.99;45.97
4469;BME280;2247;42.666;23.292;2024-02-04T13:01:54;94657.53;;;14.86;45.91
4469;BME280;2247;42.666;23.292;2024-02-04T13:04:22;94670.97;;;14.76;46.17
4469;BME280;2247;42.666;23.292;2024-02-04T13:06:50;94668.88;;;14.73;45.91
4469;BME280;2247;42.666;23.292;2024-02-04T13:09:17;94637.88;;;14.55;46.24
4469;BME280;2247;42.666;23.292;2024-02-04T13:11:46;94657.22;;;14.55;46.27
4469;BME280;2247;42.666;23.292;2024-02-04T13:14:13;94664.66;;;14.53;46.63
4469;BME280;2247;42.666;23.292;2024-02-04T13:16:40;94664.59;;;14.58;46.69